Weather at Leonardo da Vinci–Fiumicino Airport

Public forecast

Using degrees Celsius for public forecast. Weather courtesy of forecast.io.

Current aviation weather report (METAR) for Leonardo da Vinci–Fiumicino Airport

Retrieved 2021/07/29 08:50 UTC (15 minutes ago):

LIRF 290850Z 18009KT CAVOK 31/19 Q1014 NOSIG

Aviation forecast (TAF) for Leonardo da Vinci–Fiumicino Airport

Retrieved 2021/07/29 06:00 UTC (3 hours ago):

TAF LIRF 290500Z 2906/3012 VRB05KT CAVOK BECMG 2908/2910 24012KT BECMG 2918/2920 VRB05KT BECMG 3008/3010 26012KT